Terminal Aerodrome Forecast
Issued by NWS

Home | Current Version | Previous Version | Text Only | Print | Product List | Glossary On
Versions: 1 2 3 4 5 6 7 8 9 10 11 12
000
FTUS45 KTFX 041738
TAFHLN
TAF
KHLN 041738Z 0418/0518 32010KT P6SM SKC
     FM050600 35011KT P6SM VCSH SCT070 BKN120
      TEMPO 0506/0509 VRB25G35KT P6SM -TSRA BKN060CB
     FM051200 31010KT P6SM VCSH BKN050=

USA.gov is the U.S. government's official web portal to all federal, state and local government web resources and services.